sensor_id;sensor_type;location;lat;lon;timestamp;pressure;altitude;pressure_sealevel;temperature;humidity
50292;BME280;36190;54.980;73.388;2023-05-09T00:01:55;100627.69;;;12.58;31.31
50292;BME280;36190;54.980;73.388;2023-05-09T00:04:23;100650.75;;;12.59;31.20
50292;BME280;36190;54.980;73.388;2023-05-09T00:06:50;100655.44;;;12.57;31.18
50292;BME280;36190;54.980;73.388;2023-05-09T00:09:18;100664.66;;;12.55;31.24
50292;BME280;36190;54.980;73.388;2023-05-09T00:11:47;100665.84;;;12.52;31.17
50292;BME280;36190;54.980;73.388;2023-05-09T00:14:14;100666.84;;;12.51;31.27
50292;BME280;36190;54.980;73.388;2023-05-09T00:16:43;100665.53;;;12.47;31.47
50292;BME280;36190;54.980;73.388;2023-05-09T00:19:10;100678.91;;;12.47;31.39
50292;BME280;36190;54.980;73.388;2023-05-09T00:21:37;100669.91;;;12.40;31.48
50292;BME280;36190;54.980;73.388;2023-05-09T00:24:05;100674.09;;;12.34;31.60
50292;BME280;36190;54.980;73.388;2023-05-09T00:26:33;100678.63;;;12.33;31.85
50292;BME280;36190;54.980;73.388;2023-05-09T00:29:02;100678.97;;;12.38;31.67
50292;BME280;36190;54.980;73.388;2023-05-09T00:31:29;100689.13;;;12.43;31.65
50292;BME280;36190;54.980;73.388;2023-05-09T00:33:57;100687.63;;;12.41;31.66
50292;BME280;36190;54.980;73.388;2023-05-09T00:36:24;100686.63;;;12.42;31.69
50292;BME280;36190;54.980;73.388;2023-05-09T00:38:51;100689.63;;;12.47;31.96
50292;BME280;36190;54.980;73.388;2023-05-09T00:41:19;100697.13;;;12.51;31.74
50292;BME280;36190;54.980;73.388;2023-05-09T00:43:46;100720.00;;;12.54;31.89
50292;BME280;36190;54.980;73.388;2023-05-09T00:46:16;100724.06;;;12.50;32.07
50292;BME280;36190;54.980;73.388;2023-05-09T00:48:43;100722.06;;;12.44;31.92
50292;BME280;36190;54.980;73.388;2023-05-09T00:51:11;100715.41;;;12.40;31.89
50292;BME280;36190;54.980;73.388;2023-05-09T00:53:39;100733.13;;;12.41;32.02
50292;BME280;36190;54.980;73.388;2023-05-09T00:56:07;100735.28;;;12.45;31.87
50292;BME280;36190;54.980;73.388;2023-05-09T00:58:35;100746.81;;;12.46;31.99
50292;BME280;36190;54.980;73.388;2023-05-09T01:01:02;100740.47;;;12.47;32.08
50292;BME280;36190;54.980;73.388;2023-05-09T01:03:32;100746.13;;;12.52;31.93
50292;BME280;36190;54.980;73.388;2023-05-09T01:06:02;100744.09;;;12.54;31.84
50292;BME280;36190;54.980;73.388;2023-05-09T01:08:42;100732.44;;;12.47;31.90
50292;BME280;36190;54.980;73.388;2023-05-09T01:11:14;100721.75;;;12.47;31.96
50292;BME280;36190;54.980;73.388;2023-05-09T01:13:51;100738.69;;;12.71;31.88
50292;BME280;36190;54.980;73.388;2023-05-09T01:16:29;100735.03;;;12.72;31.82
50292;BME280;36190;54.980;73.388;2023-05-09T01:19:07;100747.22;;;12.74;31.50
50292;BME280;36190;54.980;73.388;2023-05-09T01:21:37;100751.72;;;12.82;31.76
50292;BME280;36190;54.980;73.388;2023-05-09T01:24:27;100752.53;;;12.83;31.74
50292;BME280;36190;54.980;73.388;2023-05-09T01:27:12;100750.72;;;12.75;31.60
50292;BME280;36190;54.980;73.388;2023-05-09T01:29:45;100752.41;;;12.76;31.63
50292;BME280;36190;54.980;73.388;2023-05-09T01:32:16;100757.06;;;12.82;31.72
50292;BME280;36190;54.980;73.388;2023-05-09T01:34:44;100763.19;;;12.91;31.64
50292;BME280;36190;54.980;73.388;2023-05-09T01:37:14;100758.03;;;12.89;31.58
50292;BME280;36190;54.980;73.388;2023-05-09T01:39:45;100778.06;;;13.02;31.31
50292;BME280;36190;54.980;73.388;2023-05-09T01:42:15;100789.44;;;13.04;31.29
50292;BME280;36190;54.980;73.388;2023-05-09T01:44:46;100801.50;;;13.00;31.40
50292;BME280;36190;54.980;73.388;2023-05-09T01:47:14;100802.03;;;12.95;31.59
50292;BME280;36190;54.980;73.388;2023-05-09T01:49:45;100790.66;;;12.93;31.76
50292;BME280;36190;54.980;73.388;2023-05-09T01:52:15;100800.69;;;12.91;31.67
50292;BME280;36190;54.980;73.388;2023-05-09T01:54:48;100788.19;;;12.83;31.54
50292;BME280;36190;54.980;73.388;2023-05-09T01:57:17;100786.56;;;12.65;31.68
50292;BME280;36190;54.980;73.388;2023-05-09T01:59:48;100806.31;;;12.73;31.98
50292;BME280;36190;54.980;73.388;2023-05-09T02:02:17;100806.63;;;12.70;32.02
50292;BME280;36190;54.980;73.388;2023-05-09T02:04:46;100813.50;;;12.64;32.10
50292;BME280;36190;54.980;73.388;2023-05-09T02:07:15;100816.69;;;12.59;32.13
50292;BME280;36190;54.980;73.388;2023-05-09T02:09:45;100816.38;;;12.54;32.12
50292;BME280;36190;54.980;73.388;2023-05-09T02:12:13;100831.78;;;12.52;32.16
50292;BME280;36190;54.980;73.388;2023-05-09T02:14:40;100831.78;;;12.44;32.16
50292;BME280;36190;54.980;73.388;2023-05-09T02:17:09;100833.16;;;12.40;32.33
50292;BME280;36190;54.980;73.388;2023-05-09T02:19:42;100825.75;;;12.50;32.14
50292;BME280;36190;54.980;73.388;2023-05-09T02:22:09;100829.06;;;12.60;32.11
50292;BME280;36190;54.980;73.388;2023-05-09T02:24:38;100827.22;;;12.69;31.99
50292;BME280;36190;54.980;73.388;2023-05-09T02:27:06;100829.03;;;12.77;31.85
50292;BME280;36190;54.980;73.388;2023-05-09T02:29:39;100831.69;;;12.85;31.91
50292;BME280;36190;54.980;73.388;2023-05-09T02:32:12;100843.19;;;13.02;31.41
50292;BME280;36190;54.980;73.388;2023-05-09T02:34:41;100839.63;;;13.10;31.52
50292;BME280;36190;54.980;73.388;2023-05-09T02:37:10;100841.09;;;13.21;31.41
50292;BME280;36190;54.980;73.388;2023-05-09T02:39:37;100847.53;;;13.35;31.19
50292;BME280;36190;54.980;73.388;2023-05-09T02:42:06;100856.91;;;13.47;31.12
50292;BME280;36190;54.980;73.388;2023-05-09T02:44:34;100859.50;;;13.64;31.24
50292;BME280;36190;54.980;73.388;2023-05-09T02:47:02;100865.75;;;13.80;30.66
50292;BME280;36190;54.980;73.388;2023-05-09T02:49:31;100859.91;;;13.99;30.64
50292;BME280;36190;54.980;73.388;2023-05-09T02:51:59;100875.88;;;14.16;30.23
50292;BME280;36190;54.980;73.388;2023-05-09T02:54:27;100884.25;;;14.21;30.22
50292;BME280;36190;54.980;73.388;2023-05-09T02:56:54;100884.19;;;14.06;30.23
50292;BME280;36190;54.980;73.388;2023-05-09T02:59:22;100885.72;;;14.00;30.10
50292;BME280;36190;54.980;73.388;2023-05-09T03:01:49;100861.16;;;14.12;30.25
50292;BME280;36190;54.980;73.388;2023-05-09T03:04:17;100857.03;;;14.24;29.99
50292;BME280;36190;54.980;73.388;2023-05-09T03:06:46;100857.91;;;14.40;29.76
50292;BME280;36190;54.980;73.388;2023-05-09T03:09:13;100857.31;;;14.68;29.41
50292;BME280;36190;54.980;73.388;2023-05-09T03:11:41;100861.41;;;14.94;29.32
50292;BME280;36190;54.980;73.388;2023-05-09T03:14:08;100863.38;;;15.00;29.17
50292;BME280;36190;54.980;73.388;2023-05-09T03:16:38;100870.19;;;15.03;29.14
50292;BME280;36190;54.980;73.388;2023-05-09T03:19:05;100865.03;;;15.01;29.22
50292;BME280;36190;54.980;73.388;2023-05-09T03:21:33;100863.69;;;15.12;29.29
50292;BME280;36190;54.980;73.388;2023-05-09T03:24:02;100860.66;;;15.15;29.05
50292;BME280;36190;54.980;73.388;2023-05-09T03:26:30;100858.78;;;15.31;28.83
50292;BME280;36190;54.980;73.388;2023-05-09T03:29:00;100863.84;;;15.40;28.74
50292;BME280;36190;54.980;73.388;2023-05-09T03:31:27;100860.78;;;15.44;28.63
50292;BME280;36190;54.980;73.388;2023-05-09T03:33:55;100858.34;;;15.49;28.48
50292;BME280;36190;54.980;73.388;2023-05-09T03:36:22;100861.19;;;15.62;28.29
50292;BME280;36190;54.980;73.388;2023-05-09T03:38:50;100862.16;;;15.91;28.09
50292;BME280;36190;54.980;73.388;2023-05-09T03:41:19;100857.63;;;16.20;27.53
50292;BME280;36190;54.980;73.388;2023-05-09T03:43:47;100863.00;;;16.42;27.28
50292;BME280;36190;54.980;73.388;2023-05-09T03:46:14;100858.09;;;16.53;26.99
50292;BME280;36190;54.980;73.388;2023-05-09T03:48:42;100859.75;;;16.54;26.99
50292;BME280;36190;54.980;73.388;2023-05-09T03:51:10;100860.59;;;16.54;26.77
50292;BME280;36190;54.980;73.388;2023-05-09T03:53:37;100866.44;;;16.58;26.60
50292;BME280;36190;54.980;73.388;2023-05-09T03:56:05;100865.25;;;16.67;26.20
50292;BME280;36190;54.980;73.388;2023-05-09T03:58:34;100873.47;;;16.59;26.25
50292;BME280;36190;54.980;73.388;2023-05-09T04:01:01;100868.06;;;16.52;26.20
50292;BME280;36190;54.980;73.388;2023-05-09T04:03:29;100880.41;;;16.46;26.31
50292;BME280;36190;54.980;73.388;2023-05-09T04:05:57;100889.53;;;16.45;25.99
50292;BME280;36190;54.980;73.388;2023-05-09T04:08:24;100888.16;;;16.28;25.85
50292;BME280;36190;54.980;73.388;2023-05-09T04:10:53;100885.84;;;16.25;25.74
50292;BME280;36190;54.980;73.388;2023-05-09T04:13:20;100896.75;;;16.16;25.45
50292;BME280;36190;54.980;73.388;2023-05-09T04:15:49;100892.72;;;16.05;25.76
50292;BME280;36190;54.980;73.388;2023-05-09T04:18:17;100895.44;;;15.90;25.84
50292;BME280;36190;54.980;73.388;2023-05-09T04:20:44;100900.56;;;15.85;26.14
50292;BME280;36190;54.980;73.388;2023-05-09T04:23:11;100901.72;;;15.76;26.20
50292;BME280;36190;54.980;73.388;2023-05-09T04:25:39;100892.44;;;15.63;26.60
50292;BME280;36190;54.980;73.388;2023-05-09T04:28:07;100896.91;;;15.56;26.89
50292;BME280;36190;54.980;73.388;2023-05-09T04:30:34;100898.50;;;15.50;26.90
50292;BME280;36190;54.980;73.388;2023-05-09T04:33:03;100896.28;;;15.54;27.10
50292;BME280;36190;54.980;73.388;2023-05-09T04:35:31;100896.09;;;15.56;27.27
50292;BME280;36190;54.980;73.388;2023-05-09T04:37:58;100891.06;;;15.67;27.25
50292;BME280;36190;54.980;73.388;2023-05-09T04:40:26;100896.66;;;15.88;27.27
50292;BME280;36190;54.980;73.388;2023-05-09T04:42:53;100907.91;;;15.91;27.25
50292;BME280;36190;54.980;73.388;2023-05-09T04:45:22;100897.94;;;15.70;27.59
50292;BME280;36190;54.980;73.388;2023-05-09T04:47:49;100898.56;;;15.57;27.89
50292;BME280;36190;54.980;73.388;2023-05-09T04:50:18;100913.06;;;15.56;28.31
50292;BME280;36190;54.980;73.388;2023-05-09T04:52:46;100903.88;;;15.50;28.37
50292;BME280;36190;54.980;73.388;2023-05-09T04:55:13;100910.41;;;15.41;28.47
50292;BME280;36190;54.980;73.388;2023-05-09T04:57:41;100908.56;;;15.42;28.73
50292;BME280;36190;54.980;73.388;2023-05-09T05:00:09;100907.53;;;15.43;28.86
50292;BME280;36190;54.980;73.388;2023-05-09T05:02:37;100912.34;;;15.32;28.78
50292;BME280;36190;54.980;73.388;2023-05-09T05:05:05;100917.19;;;15.22;28.85
50292;BME280;36190;54.980;73.388;2023-05-09T05:07:34;100918.31;;;15.12;29.09
50292;BME280;36190;54.980;73.388;2023-05-09T05:10:02;100922.94;;;15.19;29.02
50292;BME280;36190;54.980;73.388;2023-05-09T05:12:31;100924.59;;;15.20;29.09
50292;BME280;36190;54.980;73.388;2023-05-09T05:14:58;100927.94;;;15.07;29.24
50292;BME280;36190;54.980;73.388;2023-05-09T05:17:25;100930.53;;;15.00;29.38
50292;BME280;36190;54.980;73.388;2023-05-09T05:19:54;100938.22;;;15.03;29.47
50292;BME280;36190;54.980;73.388;2023-05-09T05:22:21;100934.50;;;14.89;29.84
50292;BME280;36190;54.980;73.388;2023-05-09T05:24:50;100942.03;;;14.70;30.13
50292;BME280;36190;54.980;73.388;2023-05-09T05:27:18;100934.16;;;14.69;30.19
50292;BME280;36190;54.980;73.388;2023-05-09T05:29:45;100938.09;;;14.81;29.96
50292;BME280;36190;54.980;73.388;2023-05-09T05:32:12;100941.16;;;14.78;30.08
50292;BME280;36190;54.980;73.388;2023-05-09T05:34:40;100946.59;;;14.70;30.17
50292;BME280;36190;54.980;73.388;2023-05-09T05:37:07;100948.78;;;14.66;30.33
50292;BME280;36190;54.980;73.388;2023-05-09T05:39:35;100949.34;;;14.62;30.51
50292;BME280;36190;54.980;73.388;2023-05-09T05:42:04;100941.34;;;14.53;30.56
50292;BME280;36190;54.980;73.388;2023-05-09T05:44:31;100948.69;;;14.60;30.51
50292;BME280;36190;54.980;73.388;2023-05-09T05:46:58;100944.41;;;14.74;30.36
50292;BME280;36190;54.980;73.388;2023-05-09T05:49:26;100956.91;;;14.81;30.30
50292;BME280;36190;54.980;73.388;2023-05-09T05:51:53;100958.50;;;14.67;30.36
50292;BME280;36190;54.980;73.388;2023-05-09T05:54:21;100962.53;;;14.48;30.72
50292;BME280;36190;54.980;73.388;2023-05-09T05:56:49;100965.22;;;14.48;30.77
50292;BME280;36190;54.980;73.388;2023-05-09T05:59:17;100965.94;;;14.42;30.89
50292;BME280;36190;54.980;73.388;2023-05-09T06:01:48;100947.44;;;14.47;30.96
50292;BME280;36190;54.980;73.388;2023-05-09T06:04:16;100954.06;;;14.60;30.61
50292;BME280;36190;54.980;73.388;2023-05-09T06:06:43;100956.69;;;14.68;30.43
50292;BME280;36190;54.980;73.388;2023-05-09T06:09:11;100954.91;;;14.98;30.03
50292;BME280;36190;54.980;73.388;2023-05-09T06:11:38;100964.91;;;15.20;29.66
50292;BME280;36190;54.980;73.388;2023-05-09T06:14:06;100968.88;;;15.24;29.50
50292;BME280;36190;54.980;73.388;2023-05-09T06:16:35;100954.63;;;15.38;29.41
50292;BME280;36190;54.980;73.388;2023-05-09T06:19:02;100957.66;;;15.50;29.35
50292;BME280;36190;54.980;73.388;2023-05-09T06:21:30;100959.44;;;15.58;29.30
50292;BME280;36190;54.980;73.388;2023-05-09T06:23:58;100975.78;;;15.42;29.03
50292;BME280;36190;54.980;73.388;2023-05-09T06:26:27;100970.66;;;15.32;29.15
50292;BME280;36190;54.980;73.388;2023-05-09T06:28:55;100971.50;;;15.32;29.29
50292;BME280;36190;54.980;73.388;2023-05-09T06:31:22;100961.13;;;15.29;29.32
50292;BME280;36190;54.980;73.388;2023-05-09T06:33:52;100957.06;;;15.33;29.36
50292;BME280;36190;54.980;73.388;2023-05-09T06:36:20;100957.22;;;15.47;29.14
50292;BME280;36190;54.980;73.388;2023-05-09T06:38:47;100958.06;;;15.47;28.78
50292;BME280;36190;54.980;73.388;2023-05-09T06:41:15;100952.41;;;15.42;28.91
50292;BME280;36190;54.980;73.388;2023-05-09T06:43:42;100961.31;;;15.43;28.91
50292;BME280;36190;54.980;73.388;2023-05-09T06:46:09;100945.63;;;15.46;28.88
50292;BME280;36190;54.980;73.388;2023-05-09T06:48:37;100950.41;;;15.66;28.77
50292;BME280;36190;54.980;73.388;2023-05-09T06:51:06;100954.09;;;15.80;28.55
50292;BME280;36190;54.980;73.388;2023-05-09T06:53:34;100956.50;;;15.90;28.44
50292;BME280;36190;54.980;73.388;2023-05-09T06:56:01;100960.06;;;16.12;28.20
50292;BME280;36190;54.980;73.388;2023-05-09T06:58:29;100954.44;;;16.29;28.19
50292;BME280;36190;54.980;73.388;2023-05-09T07:00:56;100968.44;;;16.39;27.62
50292;BME280;36190;54.980;73.388;2023-05-09T07:03:24;100962.25;;;16.24;27.43
50292;BME280;36190;54.980;73.388;2023-05-09T07:05:52;100959.19;;;16.27;27.33
50292;BME280;36190;54.980;73.388;2023-05-09T07:08:23;100960.44;;;16.53;27.06
50292;BME280;36190;54.980;73.388;2023-05-09T07:10:50;100975.53;;;16.69;27.10
50292;BME280;36190;54.980;73.388;2023-05-09T07:13:18;100968.16;;;16.56;27.15
50292;BME280;36190;54.980;73.388;2023-05-09T07:15:45;100952.44;;;16.38;27.37
50292;BME280;36190;54.980;73.388;2023-05-09T07:18:12;100961.22;;;16.46;27.43
50292;BME280;36190;54.980;73.388;2023-05-09T07:20:40;100959.75;;;16.44;27.14
50292;BME280;36190;54.980;73.388;2023-05-09T07:23:08;100959.38;;;16.47;26.95
50292;BME280;36190;54.980;73.388;2023-05-09T07:25:37;100968.16;;;16.56;26.56
50292;BME280;36190;54.980;73.388;2023-05-09T07:28:04;100957.72;;;16.74;26.61
50292;BME280;36190;54.980;73.388;2023-05-09T07:30:32;100964.63;;;17.06;26.09
50292;BME280;36190;54.980;73.388;2023-05-09T07:32:59;100967.38;;;17.19;25.65
50292;BME280;36190;54.980;73.388;2023-05-09T07:35:27;100966.50;;;17.12;24.97
50292;BME280;36190;54.980;73.388;2023-05-09T07:37:54;100965.50;;;17.13;24.79
50292;BME280;36190;54.980;73.388;2023-05-09T07:40:22;100955.34;;;17.15;24.90
50292;BME280;36190;54.980;73.388;2023-05-09T07:42:51;100957.03;;;17.23;24.92
50292;BME280;36190;54.980;73.388;2023-05-09T07:45:19;100961.91;;;17.41;24.86
50292;BME280;36190;54.980;73.388;2023-05-09T07:47:47;100961.00;;;17.27;24.58
50292;BME280;36190;54.980;73.388;2023-05-09T07:50:14;100952.25;;;17.18;24.67
50292;BME280;36190;54.980;73.388;2023-05-09T07:52:42;100960.94;;;17.20;24.48
50292;BME280;36190;54.980;73.388;2023-05-09T07:55:10;100959.81;;;17.36;24.08
50292;BME280;36190;54.980;73.388;2023-05-09T07:57:38;100954.09;;;17.59;23.73
50292;BME280;36190;54.980;73.388;2023-05-09T08:00:08;100963.31;;;17.79;23.44
50292;BME280;36190;54.980;73.388;2023-05-09T08:02:36;100966.44;;;17.89;23.39
50292;BME280;36190;54.980;73.388;2023-05-09T08:05:04;100968.09;;;17.77;22.92
50292;BME280;36190;54.980;73.388;2023-05-09T08:07:32;100963.22;;;17.58;22.98
50292;BME280;36190;54.980;73.388;2023-05-09T08:10:00;100959.03;;;17.49;23.01
50292;BME280;36190;54.980;73.388;2023-05-09T08:12:27;100958.88;;;17.64;23.13
50292;BME280;36190;54.980;73.388;2023-05-09T08:14:55;100979.88;;;17.69;22.76
50292;BME280;36190;54.980;73.388;2023-05-09T08:17:24;100968.59;;;17.52;22.86
50292;BME280;36190;54.980;73.388;2023-05-09T08:19:51;100957.56;;;17.46;22.98
50292;BME280;36190;54.980;73.388;2023-05-09T08:22:19;100958.72;;;17.72;22.88
50292;BME280;36190;54.980;73.388;2023-05-09T08:24:46;100965.59;;;17.82;22.92
50292;BME280;36190;54.980;73.388;2023-05-09T08:27:14;100972.50;;;17.91;22.90
50292;BME280;36190;54.980;73.388;2023-05-09T08:29:42;100983.94;;;18.00;22.90
50292;BME280;36190;54.980;73.388;2023-05-09T08:32:09;100971.72;;;18.04;22.62
50292;BME280;36190;54.980;73.388;2023-05-09T08:34:38;100973.75;;;17.95;22.23
50292;BME280;36190;54.980;73.388;2023-05-09T08:37:05;100966.69;;;17.94;22.02
50292;BME280;36190;54.980;73.388;2023-05-09T08:39:33;100973.31;;;17.85;22.07
50292;BME280;36190;54.980;73.388;2023-05-09T08:42:01;100973.13;;;17.93;22.10
50292;BME280;36190;54.980;73.388;2023-05-09T08:44:30;100981.53;;;18.25;21.61
50292;BME280;36190;54.980;73.388;2023-05-09T08:46:58;100974.91;;;18.41;21.53
50292;BME280;36190;54.980;73.388;2023-05-09T08:49:26;100977.19;;;18.51;21.45
50292;BME280;36190;54.980;73.388;2023-05-09T08:51:56;100971.78;;;18.58;21.44
50292;BME280;36190;54.980;73.388;2023-05-09T08:54:24;100974.50;;;18.92;21.38
50292;BME280;36190;54.980;73.388;2023-05-09T08:56:52;100979.41;;;19.42;21.16
50292;BME280;36190;54.980;73.388;2023-05-09T08:59:19;100967.06;;;19.60;20.87
50292;BME280;36190;54.980;73.388;2023-05-09T09:01:48;100964.53;;;19.65;20.78
50292;BME280;36190;54.980;73.388;2023-05-09T09:04:16;100978.97;;;19.45;20.81
50292;BME280;36190;54.980;73.388;2023-05-09T09:06:43;100977.41;;;19.04;21.02
50292;BME280;36190;54.980;73.388;2023-05-09T09:09:14;100972.81;;;18.97;21.17
50292;BME280;36190;54.980;73.388;2023-05-09T09:11:44;100975.13;;;19.01;21.11
50292;BME280;36190;54.980;73.388;2023-05-09T09:14:15;100969.28;;;18.97;21.09
50292;BME280;36190;54.980;73.388;2023-05-09T09:16:46;100972.56;;;19.33;21.32
50292;BME280;36190;54.980;73.388;2023-05-09T09:19:16;100961.75;;;19.26;21.03
50292;BME280;36190;54.980;73.388;2023-05-09T09:21:45;100956.81;;;19.09;20.94
50292;BME280;36190;54.980;73.388;2023-05-09T09:24:21;100973.84;;;18.96;20.93
50292;BME280;36190;54.980;73.388;2023-05-09T09:26:49;100970.94;;;18.91;20.96
50292;BME280;36190;54.980;73.388;2023-05-09T09:29:18;100974.28;;;18.80;20.81
50292;BME280;36190;54.980;73.388;2023-05-09T09:31:51;100965.16;;;18.54;20.77
50292;BME280;36190;54.980;73.388;2023-05-09T09:34:20;100967.63;;;18.28;20.74
50292;BME280;36190;54.980;73.388;2023-05-09T09:36:49;100959.69;;;18.13;20.95
50292;BME280;36190;54.980;73.388;2023-05-09T09:39:18;100972.41;;;18.47;20.67
50292;BME280;36190;54.980;73.388;2023-05-09T09:41:46;100963.50;;;18.73;20.54
50292;BME280;36190;54.980;73.388;2023-05-09T09:44:16;100981.97;;;18.96;20.34
50292;BME280;36190;54.980;73.388;2023-05-09T09:46:45;100975.94;;;18.94;20.13
50292;BME280;36190;54.980;73.388;2023-05-09T09:49:13;100972.63;;;18.86;19.93
50292;BME280;36190;54.980;73.388;2023-05-09T09:51:42;100964.31;;;18.87;19.98
50292;BME280;36190;54.980;73.388;2023-05-09T09:54:10;100966.16;;;18.87;20.07
50292;BME280;36190;54.980;73.388;2023-05-09T09:56:41;100977.22;;;18.85;20.13
50292;BME280;36190;54.980;73.388;2023-05-09T09:59:10;100962.66;;;18.73;20.26
50292;BME280;36190;54.980;73.388;2023-05-09T10:01:59;100984.06;;;18.94;20.46
50292;BME280;36190;54.980;73.388;2023-05-09T10:04:29;100973.88;;;19.03;20.25
50292;BME280;36190;54.980;73.388;2023-05-09T10:06:58;100977.81;;;19.01;20.37
50292;BME280;36190;54.980;73.388;2023-05-09T10:09:28;100980.50;;;19.14;20.46
50292;BME280;36190;54.980;73.388;2023-05-09T10:12:03;100989.25;;;19.16;20.20
50292;BME280;36190;54.980;73.388;2023-05-09T10:14:34;100985.94;;;19.01;20.42
50292;BME280;36190;54.980;73.388;2023-05-09T10:17:03;100983.03;;;19.09;20.38
50292;BME280;36190;54.980;73.388;2023-05-09T10:19:32;100972.97;;;19.36;20.09
50292;BME280;36190;54.980;73.388;2023-05-09T10:22:02;100989.84;;;19.91;19.78
50292;BME280;36190;54.980;73.388;2023-05-09T10:24:34;100986.56;;;20.79;19.57
50292;BME280;36190;54.980;73.388;2023-05-09T10:27:10;100999.09;;;21.42;18.72
50292;BME280;36190;54.980;73.388;2023-05-09T10:29:41;100986.66;;;21.53;18.30
50292;BME280;36190;54.980;73.388;2023-05-09T10:32:15;100992.63;;;21.81;18.33
50292;BME280;36190;54.980;73.388;2023-05-09T10:34:46;100987.88;;;22.07;18.03
50292;BME280;36190;54.980;73.388;2023-05-09T10:37:15;100982.31;;;22.44;18.00
50292;BME280;36190;54.980;73.388;2023-05-09T10:39:43;100994.59;;;22.89;17.44
50292;BME280;36190;54.980;73.388;2023-05-09T10:42:12;100994.44;;;23.20;17.19
50292;BME280;36190;54.980;73.388;2023-05-09T10:44:40;101009.69;;;23.57;17.19
50292;BME280;36190;54.980;73.388;2023-05-09T10:47:08;101008.59;;;23.58;17.02
50292;BME280;36190;54.980;73.388;2023-05-09T10:49:38;101010.28;;;23.47;17.16
50292;BME280;36190;54.980;73.388;2023-05-09T10:52:05;101006.16;;;23.32;17.21
50292;BME280;36190;54.980;73.388;2023-05-09T10:54:35;101013.75;;;23.30;17.18
50292;BME280;36190;54.980;73.388;2023-05-09T10:57:04;101005.09;;;23.10;17.13
50292;BME280;36190;54.980;73.388;2023-05-09T10:59:38;101019.75;;;22.85;17.39
50292;BME280;36190;54.980;73.388;2023-05-09T11:02:12;101007.13;;;22.36;17.54
50292;BME280;36190;54.980;73.388;2023-05-09T11:04:40;101006.00;;;22.13;17.62
50292;BME280;36190;54.980;73.388;2023-05-09T11:07:22;101000.56;;;22.56;17.41
50292;BME280;36190;54.980;73.388;2023-05-09T11:09:51;101014.94;;;22.44;17.25
50292;BME280;36190;54.980;73.388;2023-05-09T11:12:19;101012.09;;;22.39;17.16
50292;BME280;36190;54.980;73.388;2023-05-09T11:14:49;101013.25;;;22.62;17.03
50292;BME280;36190;54.980;73.388;2023-05-09T11:17:36;101010.28;;;22.75;16.86
50292;BME280;36190;54.980;73.388;2023-05-09T11:20:05;101005.47;;;22.77;16.74
50292;BME280;36190;54.980;73.388;2023-05-09T11:22:38;100994.44;;;22.72;16.46
50292;BME280;36190;54.980;73.388;2023-05-09T11:25:08;101014.19;;;22.79;16.66
50292;BME280;36190;54.980;73.388;2023-05-09T11:27:38;101016.69;;;22.69;16.63
50292;BME280;36190;54.980;73.388;2023-05-09T11:30:10;101015.84;;;22.80;16.65
50292;BME280;36190;54.980;73.388;2023-05-09T11:32:46;101012.56;;;23.26;16.62
50292;BME280;36190;54.980;73.388;2023-05-09T11:35:17;101020.44;;;23.63;16.49
50292;BME280;36190;54.980;73.388;2023-05-09T11:37:47;101015.41;;;24.13;16.19
50292;BME280;36190;54.980;73.388;2023-05-09T11:40:16;101027.00;;;24.84;15.97
50292;BME280;36190;54.980;73.388;2023-05-09T11:42:45;101013.94;;;25.03;15.53
50292;BME280;36190;54.980;73.388;2023-05-09T11:45:14;101024.09;;;25.08;15.61
50292;BME280;36190;54.980;73.388;2023-05-09T11:47:42;101014.91;;;25.14;15.33
50292;BME280;36190;54.980;73.388;2023-05-09T11:50:13;101024.22;;;25.35;15.12
50292;BME280;36190;54.980;73.388;2023-05-09T11:52:40;101031.56;;;25.35;15.33
50292;BME280;36190;54.980;73.388;2023-05-09T11:55:10;101022.97;;;24.87;15.29
50292;BME280;36190;54.980;73.388;2023-05-09T11:57:39;101018.22;;;24.65;15.60
50292;BME280;36190;54.980;73.388;2023-05-09T12:00:08;101026.13;;;25.18;15.28
50292;BME280;36190;54.980;73.388;2023-05-09T12:02:38;101031.03;;;25.55;14.92
50292;BME280;36190;54.980;73.388;2023-05-09T12:05:06;101024.84;;;25.03;14.94
50292;BME280;36190;54.980;73.388;2023-05-09T12:07:35;101025.03;;;24.79;15.36
50292;BME280;36190;54.980;73.388;2023-05-09T12:10:05;101024.47;;;25.17;15.04
50292;BME280;36190;54.980;73.388;2023-05-09T12:12:33;101022.97;;;25.65;14.61
50292;BME280;36190;54.980;73.388;2023-05-09T12:15:02;101023.88;;;25.71;14.35
50292;BME280;36190;54.980;73.388;2023-05-09T12:17:30;101032.50;;;25.63;14.30
50292;BME280;36190;54.980;73.388;2023-05-09T12:19:59;101032.13;;;24.97;14.51
50292;BME280;36190;54.980;73.388;2023-05-09T12:22:29;101028.63;;;24.51;14.75
50292;BME280;36190;54.980;73.388;2023-05-09T12:25:00;101027.16;;;24.60;14.77
50292;BME280;36190;54.980;73.388;2023-05-09T12:27:28;101018.56;;;25.03;14.57
50292;BME280;36190;54.980;73.388;2023-05-09T12:29:59;101035.59;;;25.49;14.54
50292;BME280;36190;54.980;73.388;2023-05-09T12:32:27;101036.75;;;25.14;14.35
50292;BME280;36190;54.980;73.388;2023-05-09T12:34:59;101036.66;;;24.40;14.79
50292;BME280;36190;54.980;73.388;2023-05-09T12:37:28;101037.41;;;23.95;14.86
50292;BME280;36190;54.980;73.388;2023-05-09T12:40:00;101031.25;;;24.28;14.86
50292;BME280;36190;54.980;73.388;2023-05-09T12:42:29;101035.81;;;24.40;14.59
50292;BME280;36190;54.980;73.388;2023-05-09T12:44:57;101024.50;;;24.65;14.65
50292;BME280;36190;54.980;73.388;2023-05-09T12:47:25;101023.03;;;24.75;14.38
50292;BME280;36190;54.980;73.388;2023-05-09T12:49:56;101030.59;;;24.72;14.25